map of PQC home
PQC - Airport
Location
City:  Phú Quóc, Vietnam
Name:Phú Quóc International Airport
ICAO:VVPQ
IATA:PQC

Details
Type:Airport (Aerodrome, Airfield)
Use:Public/Civil, International (customs port of entry)
Latitude:10°10'18"N (10.171667)
Longitude:103°59'28"E (103.991111)
Elevation:37 ft (11 m)
Variation:0.37°W (WMM2015 magnetic declination)
-0.01° annual change
Runways:1
Longest:9843 ft (3000 m), paved

Time
Time Zone:UTC+7
Local Time:

Weather
METAR:VVPQ 191500Z VRB01KT 9999 FEW017 24/22 Q1013 NOSIG
TAF:VVPQ 191100Z 1912/2012 06006KT 9999 SCT015 SCT040
BECMG 1914/1915 VRB03KT
BECMG 2002/2003 05010KT

Related Locations
Nearby:
Farthest:HUU: 12437 mi / 20015 km
Huánuco [Alférez FAP David Figueroa Fernandini], HUC, PE

Find:

   beyond  
but within

Other Information
Maps:
NOTAMs:
Links:
Sources:

  
  • flag of Vietnam
  

Sectional Chart

Flight Planning
at skyvector.com

Satellite Image

Google Maps Satellite view

 

Copyright © 2004-2018 Karl L. Swartz. All rights reserved.
The Great Circle Mapper name and logo are trademarks of the Great Circle Mapper.
All other trademarks mentioned herein belong to their respective owners.
Please see credits for attibutions and further copyright information.

  Follow gcmap on Facebook Follow gcmap on Twitter Follow gcmap on Google+ GCmap on LinkedIn

hCard Microformat

Geo Microformat